Time;durP1;ratioP1;P1;durP2;ratioP2;P2;SDS_P1;SDS_P2;PMS_P1;PMS_P2;Temp;Humidity;BMP_temperature;BMP_pressure;BME280_temperature;BME280_humidity;BME280_pressure;Samples;Min_cycle;Max_cycle;Signal;HPM_P1;HPM_P2
2022/02/24 00:00:14;;;;;;;12.18;2.10;;;;;;;4.90;93.51;101389.56;4992917;28;21070;-79
2022/02/24 00:02:43;;;;;;;12.45;1.98;;;;;;;5.13;93.60;101406.38;5005319;28;20103;-78
2022/02/24 00:05:10;;;;;;;13.30;2.03;;;;;;;5.09;93.33;101397.09;5004582;28;20064;-77
2022/02/24 00:07:36;;;;;;;9.73;2.28;;;;;;;5.06;93.35;101395.50;4991794;28;20034;-76
2022/02/24 00:10:04;;;;;;;12.63;2.65;;;;;;;5.03;93.27;101391.34;4985528;28;20050;-76
2022/02/24 00:12:31;;;;;;;10.77;2.22;;;;;;;5.10;93.45;101394.38;4974361;28;20096;-75
2022/02/24 00:14:58;;;;;;;11.25;1.98;;;;;;;5.09;93.26;101379.72;4999557;28;20046;-78
2022/02/24 00:17:23;;;;;;;9.05;1.85;;;;;;;5.12;93.46;101376.91;4996703;28;20080;-78
2022/02/24 00:19:49;;;;;;;11.48;2.30;;;;;;;5.14;93.31;101367.28;5006815;28;20458;-77
2022/02/24 00:22:15;;;;;;;9.52;2.40;;;;;;;5.09;93.55;101366.72;5021403;28;20034;-77
2022/02/24 00:24:40;;;;;;;7.03;1.77;;;;;;;5.07;93.88;101360.78;4988741;28;20145;-79
2022/02/24 00:27:06;;;;;;;11.13;2.10;;;;;;;5.05;93.24;101363.47;5006462;28;20054;-76
2022/02/24 00:29:32;;;;;;;8.00;2.00;;;;;;;5.10;93.14;101357.97;4990603;28;20049;-79
2022/02/24 00:31:58;;;;;;;11.38;2.45;;;;;;;5.12;92.92;101343.09;4990803;28;20411;-78
2022/02/24 00:34:23;;;;;;;9.52;1.70;;;;;;;5.17;92.10;101354.06;4993579;28;20084;-78
2022/02/24 00:36:53;;;;;;;9.40;2.10;;;;;;;5.19;93.56;101360.00;4991161;28;20394;-77
2022/02/24 00:39:20;;;;;;;11.10;2.17;;;;;;;5.13;93.22;101359.56;4995505;28;20107;-77
2022/02/24 00:41:46;;;;;;;11.30;2.45;;;;;;;5.15;92.79;101348.13;5014412;28;20769;-76
2022/02/24 00:44:25;;;;;;;7.35;2.03;;;;;;;5.22;92.79;101348.59;5036380;28;20038;-78
2022/02/24 00:46:54;;;;;;;9.27;2.45;;;;;;;5.25;92.58;101340.56;4998732;28;20104;-77
2022/02/24 00:49:22;;;;;;;6.57;1.90;;;;;;;5.32;92.31;101343.63;4993202;28;20037;-75
2022/02/24 00:51:48;;;;;;;8.95;1.90;;;;;;;5.25;92.32;101337.97;5016186;28;20034;-76
2022/02/24 00:54:14;;;;;;;9.35;2.42;;;;;;;5.30;91.65;101333.31;4993497;28;20069;-77
2022/02/24 00:56:40;;;;;;;11.70;2.50;;;;;;;5.32;91.57;101338.44;4985079;28;20067;-76
2022/02/24 00:59:06;;;;;;;9.20;1.70;;;;;;;5.41;91.04;101337.84;4994942;28;20043;-78
2022/02/24 01:01:31;;;;;;;8.63;2.05;;;;;;;5.32;90.98;101341.03;5008497;28;20553;-77
2022/02/24 01:03:57;;;;;;;13.65;2.30;;;;;;;5.33;91.33;101334.88;4995366;28;20034;-77
2022/02/24 01:06:23;;;;;;;16.10;2.53;;;;;;;5.40;90.86;101326.56;5014944;28;20037;-76
2022/02/24 01:08:48;;;;;;;6.57;1.75;;;;;;;5.38;91.18;101325.03;5018061;28;20050;-77
2022/02/24 01:11:14;;;;;;;7.10;1.77;;;;;;;5.38;90.71;101317.22;5007735;28;20033;-77
2022/02/24 01:13:42;;;;;;;11.13;1.98;;;;;;;5.40;90.96;101310.97;5013316;28;20033;-77
2022/02/24 01:16:08;;;;;;;9.85;2.25;;;;;;;5.30;91.16;101290.88;5004335;28;20076;-78
2022/02/24 01:18:34;;;;;;;6.15;2.05;;;;;;;5.38;90.78;101296.41;5009602;28;20041;-76
2022/02/24 01:21:04;;;;;;;9.52;1.85;;;;;;;5.41;90.58;101293.63;5016462;28;20125;-79
2022/02/24 01:23:56;;;;;;;8.15;1.88;;;;;;;5.55;90.44;101296.13;4994503;28;20050;-81
2022/02/24 01:26:23;;;;;;;10.80;2.30;;;;;;;5.44;90.41;101283.84;4986657;28;20049;-78
2022/02/24 01:28:49;;;;;;;12.25;2.10;;;;;;;5.52;89.39;101292.91;5007231;28;20038;-80
2022/02/24 01:31:14;;;;;;;12.25;2.47;;;;;;;5.45;89.83;101284.66;4996153;28;20049;-77
2022/02/24 01:33:41;;;;;;;9.15;2.03;;;;;;;5.55;90.32;101288.31;5005194;28;20042;-78
2022/02/24 01:36:07;;;;;;;8.90;1.95;;;;;;;5.51;90.05;101281.66;4991347;28;20056;-77
2022/02/24 01:38:34;;;;;;;11.18;2.55;;;;;;;5.53;90.35;101273.75;5006645;28;20058;-77
2022/02/24 01:41:00;;;;;;;10.02;2.10;;;;;;;5.40;90.94;101265.91;5011541;28;20910;-76
2022/02/24 01:43:25;;;;;;;8.43;1.75;;;;;;;5.29;91.92;101253.59;4981076;28;20041;-78
2022/02/24 01:45:51;;;;;;;4.72;1.90;;;;;;;5.28;92.14;101251.94;4996779;28;20065;-77
2022/02/24 01:48:17;;;;;;;6.45;2.30;;;;;;;5.33;91.66;101257.69;5014928;28;20502;-76
2022/02/24 01:50:43;;;;;;;11.77;2.25;;;;;;;5.17;92.13;101250.03;4994458;28;20077;-77
2022/02/24 01:53:09;;;;;;;9.18;2.63;;;;;;;5.12;93.04;101246.06;4992033;28;20060;-76
2022/02/24 01:55:35;;;;;;;7.90;1.73;;;;;;;5.00;93.04;101242.50;5004640;28;20103;-77
2022/02/24 01:58:01;;;;;;;10.48;2.67;;;;;;;4.92;93.57;101242.97;5011095;28;20450;-79
2022/02/24 02:00:27;;;;;;;10.23;1.85;;;;;;;5.04;92.17;101238.75;5000149;28;20133;-76
2022/02/24 02:02:52;;;;;;;11.38;2.55;;;;;;;5.13;91.52;101234.75;4969955;28;20030;-76
2022/02/24 02:05:18;;;;;;;8.73;2.17;;;;;;;5.14;91.74;101221.66;4982580;28;20052;-76
2022/02/24 02:07:44;;;;;;;13.27;2.50;;;;;;;5.34;90.72;101222.94;5009775;28;20033;-76
2022/02/24 02:10:10;;;;;;;8.32;1.90;;;;;;;5.48;90.29;101235.00;4987824;28;20057;-78
2022/02/24 02:12:46;;;;;;;12.88;2.40;;;;;;;5.57;89.52;101234.41;4985223;28;20049;-77
2022/02/24 02:15:12;;;;;;;7.40;1.88;;;;;;;5.63;88.48;101227.97;4996354;28;20044;-76
2022/02/24 02:17:38;;;;;;;8.23;1.83;;;;;;;5.69;88.40;101218.91;4991084;28;20026;-76
2022/02/24 02:20:04;;;;;;;8.57;2.03;;;;;;;5.73;88.22;101223.81;5003513;28;20053;-80
2022/02/24 02:22:30;;;;;;;12.30;2.45;;;;;;;5.70;88.64;101207.56;4977386;28;20116;-78
2022/02/24 02:25:00;;;;;;;11.70;2.65;;;;;;;5.77;87.52;101217.47;4991730;28;20150;-78
2022/02/24 02:27:25;;;;;;;13.25;2.42;;;;;;;5.85;87.16;101219.56;4984023;28;20121;-76
2022/02/24 02:29:51;;;;;;;10.63;3.00;;;;;;;5.72;87.41;101197.88;4977728;28;20617;-78
2022/02/24 02:32:18;;;;;;;11.15;2.50;;;;;;;5.76;88.20;101197.56;4985991;28;20037;-78
2022/02/24 02:34:44;;;;;;;8.90;2.35;;;;;;;5.75;86.51;101184.69;4976822;28;20105;-78
2022/02/24 02:37:09;;;;;;;13.93;2.22;;;;;;;5.84;87.71;101205.72;4976711;28;20049;-77
2022/02/24 02:39:35;;;;;;;10.45;2.45;;;;;;;5.80;87.99;101196.44;4978727;28;20406;-78
2022/02/24 02:42:01;;;;;;;6.43;2.28;;;;;;;5.79;88.18;101197.38;4973018;28;20034;-77
2022/02/24 02:44:26;;;;;;;8.90;2.08;;;;;;;5.80;87.89;101186.03;4992048;28;20096;-78
2022/02/24 02:46:52;;;;;;;8.77;2.20;;;;;;;5.78;87.34;101174.91;5009778;28;20034;-76
2022/02/24 02:49:18;;;;;;;11.55;2.30;;;;;;;5.79;87.19;101184.34;4994355;28;20333;-78
2022/02/24 02:51:43;;;;;;;11.05;2.33;;;;;;;5.85;87.35;101185.69;5007966;28;20040;-77
2022/02/24 02:54:09;;;;;;;11.18;2.17;;;;;;;5.87;87.22;101178.63;5005164;28;20045;-78
2022/02/24 02:56:35;;;;;;;8.68;2.50;;;;;;;5.82;86.94;101168.53;5021883;28;20473;-79
2022/02/24 02:59:00;;;;;;;12.95;2.28;;;;;;;5.80;86.77;101170.41;4990961;28;20088;-81
2022/02/24 03:01:26;;;;;;;10.15;2.20;;;;;;;5.83;87.36;101177.16;5003960;28;20026;-78
2022/02/24 03:03:52;;;;;;;7.55;2.15;;;;;;;5.84;86.25;101165.84;4995363;28;20111;-77
2022/02/24 03:06:18;;;;;;;8.05;2.38;;;;;;;5.84;87.44;101169.25;4995769;28;20121;-76
2022/02/24 03:08:44;;;;;;;11.77;2.25;;;;;;;5.78;87.14;101158.41;4987713;28;20108;-77
2022/02/24 03:11:10;;;;;;;11.43;2.28;;;;;;;5.85;86.74;101165.69;4969760;28;20101;-78
2022/02/24 03:13:35;;;;;;;10.50;2.28;;;;;;;5.80;87.03;101160.00;5007095;28;20392;-78
2022/02/24 03:16:02;;;;;;;9.02;2.58;;;;;;;5.90;85.49;101173.22;4990663;28;20206;-77
2022/02/24 03:18:28;;;;;;;12.82;2.40;;;;;;;5.87;86.42;101156.97;5002192;28;20062;-77
2022/02/24 03:20:53;;;;;;;6.90;2.08;;;;;;;5.84;87.07;101152.81;4992899;28;20125;-77
2022/02/24 03:23:19;;;;;;;14.85;2.65;;;;;;;5.81;86.11;101147.81;5008223;28;20049;-77
2022/02/24 03:25:45;;;;;;;9.77;2.25;;;;;;;5.78;86.94;101141.06;5019337;28;20044;-76
2022/02/24 03:28:11;;;;;;;13.77;2.20;;;;;;;5.82;87.51;101145.09;4992742;28;20455;-78
2022/02/24 03:30:37;;;;;;;7.93;2.55;;;;;;;5.77;87.18;101147.19;5006733;28;20049;-77
2022/02/24 03:33:04;;;;;;;9.55;2.80;;;;;;;5.78;87.22;101140.19;4979672;28;20152;-77
2022/02/24 03:35:30;;;;;;;8.73;2.60;;;;;;;5.73;86.89;101142.31;4976039;28;20836;-79
2022/02/24 03:37:58;;;;;;;7.78;2.17;;;;;;;5.84;86.48;101148.44;5003351;28;20088;-79
2022/02/24 03:40:24;;;;;;;7.63;1.90;;;;;;;5.78;86.32;101135.84;5001179;28;20089;-78
2022/02/24 03:42:50;;;;;;;9.75;2.42;;;;;;;5.83;86.53;101140.72;4997102;28;20034;-78
2022/02/24 03:45:15;;;;;;;9.48;2.22;;;;;;;5.83;85.97;101132.91;5010561;28;20041;-77
2022/02/24 03:47:41;;;;;;;10.90;2.40;;;;;;;5.77;86.37;101134.16;4999883;28;20037;-77
2022/02/24 03:50:08;;;;;;;11.70;2.50;;;;;;;5.71;87.31;101125.94;5005581;28;20038;-79
2022/02/24 03:52:34;;;;;;;8.90;2.50;;;;;;;5.74;87.02;101126.56;4992339;28;20025;-77
2022/02/24 03:55:00;;;;;;;9.52;2.35;;;;;;;5.76;86.56;101124.69;4999814;28;20034;-78
2022/02/24 03:57:27;;;;;;;8.18;1.90;;;;;;;5.79;86.80;101126.25;5007431;28;20084;-78
2022/02/24 03:59:53;;;;;;;15.60;2.55;;;;;;;5.74;87.46;101123.97;4987062;28;20125;-78
2022/02/24 04:02:18;;;;;;;11.82;2.55;;;;;;;5.76;87.53;101116.88;4991093;28;20041;-76
2022/02/24 04:04:44;;;;;;;14.15;2.35;;;;;;;5.82;86.51;101113.00;4991656;28;20480;-76
2022/02/24 04:07:10;;;;;;;9.20;2.40;;;;;;;5.79;87.59;101119.28;4989086;28;20515;-76
2022/02/24 04:09:36;;;;;;;8.88;2.45;;;;;;;5.80;86.67;101117.50;5001667;28;20120;-76
2022/02/24 04:12:04;;;;;;;10.70;2.40;;;;;;;5.79;87.50;101115.84;5005109;28;20427;-76
2022/02/24 04:14:29;;;;;;;8.68;2.47;;;;;;;5.77;87.41;101118.56;4981036;28;20124;-75
2022/02/24 04:16:56;;;;;;;10.48;2.80;;;;;;;5.79;87.68;101111.47;4994729;28;20121;-76
2022/02/24 04:19:24;;;;;;;7.47;2.40;;;;;;;5.80;87.50;101110.53;4987650;28;20488;-76
2022/02/24 04:21:50;;;;;;;8.57;2.40;;;;;;;5.73;88.35;101098.88;4987575;28;20054;-76
2022/02/24 04:24:15;;;;;;;10.60;2.63;;;;;;;5.66;88.95;101092.44;4990750;28;20124;-78
2022/02/24 04:26:41;;;;;;;8.07;3.10;;;;;;;5.65;88.40;101096.81;4991769;28;20042;-78
2022/02/24 04:29:07;;;;;;;11.25;2.65;;;;;;;5.76;88.75;101106.47;4986600;28;20125;-74
2022/02/24 04:31:33;;;;;;;9.75;2.40;;;;;;;5.72;89.01;101093.78;5014249;28;20057;-78
2022/02/24 04:33:58;;;;;;;12.13;2.70;;;;;;;5.66;88.56;101087.22;5010267;28;20048;-78
2022/02/24 04:36:24;;;;;;;14.57;2.90;;;;;;;5.69;89.43;101094.84;5006647;28;20041;-76
2022/02/24 04:38:50;;;;;;;12.40;2.42;;;;;;;5.71;89.16;101095.56;4994286;28;20038;-78
2022/02/24 04:41:15;;;;;;;12.95;2.85;;;;;;;5.74;89.36;101084.91;4990949;28;20041;-78
2022/02/24 04:43:41;;;;;;;9.05;2.40;;;;;;;5.69;89.78;101083.56;4991119;28;20030;-77
2022/02/24 04:46:07;;;;;;;12.57;2.63;;;;;;;5.72;89.80;101084.19;4990676;28;20053;-77
2022/02/24 04:48:33;;;;;;;10.48;2.50;;;;;;;5.63;90.53;101084.81;5016705;28;20068;-78
2022/02/24 04:51:00;;;;;;;10.55;2.95;;;;;;;5.69;90.40;101079.22;4993737;28;20034;-78
2022/02/24 04:53:26;;;;;;;10.93;2.83;;;;;;;5.66;89.90;101076.81;4991589;28;20216;-77
2022/02/24 04:55:53;;;;;;;7.63;2.35;;;;;;;5.64;90.21;101063.91;5009426;28;20507;-77
2022/02/24 04:58:19;;;;;;;8.70;2.38;;;;;;;5.69;90.47;101068.81;4992209;28;20124;-78
2022/02/24 05:00:45;;;;;;;11.45;2.30;;;;;;;5.54;91.89;101062.03;4986860;28;20511;-78
2022/02/24 05:03:11;;;;;;;10.30;2.70;;;;;;;5.45;92.72;101045.31;4968368;28;20052;-77
2022/02/24 05:05:37;;;;;;;14.10;2.53;;;;;;;5.41;93.10;101039.47;4988089;28;20042;-78
2022/02/24 05:08:03;;;;;;;11.07;2.83;;;;;;;5.29;93.77;101024.69;5006607;28;20108;-78
2022/02/24 05:10:28;;;;;;;11.55;2.30;;;;;;;5.24;94.80;101022.44;5012085;28;20254;-79
2022/02/24 05:12:55;;;;;;;12.45;2.90;;;;;;;5.23;95.10;101025.13;4985113;28;20042;-79
2022/02/24 05:15:21;;;;;;;9.00;2.53;;;;;;;5.21;94.85;101008.81;5005583;28;20092;-79
2022/02/24 05:17:49;;;;;;;12.77;3.08;;;;;;;5.23;95.57;101018.16;4965846;28;20034;-76
2022/02/24 05:20:16;;;;;;;11.50;2.63;;;;;;;5.26;95.00;101019.72;4989101;28;20029;-76
2022/02/24 05:22:43;;;;;;;11.95;3.20;;;;;;;5.26;94.91;101025.75;5003156;28;20038;-79
2022/02/24 05:25:15;;;;;;;9.45;2.55;;;;;;;5.30;95.20;101017.75;5007769;28;20057;-77
2022/02/24 05:27:43;;;;;;;9.85;2.80;;;;;;;5.42;94.84;101014.28;5001503;28;20495;-75
2022/02/24 05:30:11;;;;;;;10.65;2.53;;;;;;;5.35;94.47;100998.28;5008630;28;20038;-77
2022/02/24 05:32:37;;;;;;;10.77;2.70;;;;;;;5.57;93.70;101009.78;4993008;28;20745;-77
2022/02/24 05:35:03;;;;;;;9.75;2.78;;;;;;;5.44;94.22;101000.25;5002763;28;20034;-77
2022/02/24 05:37:28;;;;;;;13.07;3.20;;;;;;;5.45;93.63;100999.31;5004920;28;20037;-77
2022/02/24 05:39:55;;;;;;;14.10;3.40;;;;;;;5.51;93.40;100998.03;5002418;28;20117;-75
2022/02/24 05:42:21;;;;;;;11.20;3.28;;;;;;;5.46;93.75;100998.38;4990054;28;20038;-75
2022/02/24 05:44:47;;;;;;;13.77;2.70;;;;;;;5.42;93.26;100989.09;5003003;28;20130;-77
2022/02/24 05:47:13;;;;;;;12.43;2.95;;;;;;;5.49;92.72;100986.09;5003248;28;20050;-77
2022/02/24 05:49:39;;;;;;;14.07;3.15;;;;;;;5.50;93.10;100978.19;4994190;28;20952;-76
2022/02/24 05:52:05;;;;;;;13.05;3.22;;;;;;;5.51;93.33;100973.81;5002422;28;20097;-80
2022/02/24 05:54:32;;;;;;;12.57;2.80;;;;;;;5.48;93.14;100980.03;4970993;28;20145;-79
2022/02/24 05:56:58;;;;;;;13.23;3.20;;;;;;;5.48;93.52;100972.22;4969951;28;20045;-83
2022/02/24 05:59:24;;;;;;;16.85;3.80;;;;;;;5.54;93.16;100974.41;4995617;28;20042;-76
2022/02/24 06:01:49;;;;;;;10.75;2.85;;;;;;;5.56;92.66;100966.50;5011171;28;20121;-75
2022/02/24 06:04:16;;;;;;;12.05;3.47;;;;;;;5.69;91.83;100971.66;4995778;28;20045;-78
2022/02/24 06:06:42;;;;;;;13.45;3.50;;;;;;;5.73;91.89;100967.91;4992330;28;20057;-77
2022/02/24 06:09:07;;;;;;;16.60;3.80;;;;;;;5.71;90.31;100951.56;4978013;28;20037;-76
2022/02/24 06:11:34;;;;;;;13.02;3.75;;;;;;;5.79;89.76;100957.06;5000502;28;20061;-76
2022/02/24 06:14:00;;;;;;;14.07;3.72;;;;;;;5.81;89.82;100950.78;4993921;28;20034;-75
2022/02/24 06:16:26;;;;;;;14.10;4.25;;;;;;;5.92;87.92;100963.03;5010657;28;20391;-78
2022/02/24 06:18:52;;;;;;;18.67;4.38;;;;;;;5.88;88.45;100950.34;4993582;28;20034;-75
2022/02/24 06:21:17;;;;;;;11.45;4.60;;;;;;;5.92;88.17;100955.22;4994094;28;20038;-76
2022/02/24 06:23:44;;;;;;;11.85;4.30;;;;;;;5.96;87.58;100958.47;4972519;28;20063;-76
2022/02/24 06:26:10;;;;;;;13.43;4.55;;;;;;;5.96;88.33;100956.69;5005756;28;20163;-77
2022/02/24 06:28:36;;;;;;;13.52;4.25;;;;;;;5.98;86.75;100967.00;4969390;28;20129;-75
2022/02/24 06:31:02;;;;;;;15.88;4.60;;;;;;;5.96;87.24;100964.50;5002411;28;20034;-75
2022/02/24 06:33:28;;;;;;;15.35;4.57;;;;;;;5.98;87.45;100967.81;4975575;28;20031;-77
2022/02/24 06:35:53;;;;;;;20.38;4.40;;;;;;;5.97;87.55;100966.19;4985679;28;20038;-79
2022/02/24 06:38:19;;;;;;;13.40;4.63;;;;;;;5.98;87.54;100967.81;4992342;28;20411;-76
2022/02/24 06:40:44;;;;;;;15.18;4.47;;;;;;;5.88;87.82;100961.59;5018057;28;20031;-80
2022/02/24 06:43:10;;;;;;;11.80;4.03;;;;;;;5.95;86.46;100968.06;4993566;28;20956;-76
2022/02/24 06:45:36;;;;;;;16.50;4.30;;;;;;;6.02;86.15;100963.22;5006712;28;20507;-76
2022/02/24 06:48:01;;;;;;;13.50;4.28;;;;;;;6.00;86.74;100962.50;4987673;28;20088;-76
2022/02/24 06:50:27;;;;;;;13.90;3.97;;;;;;;6.02;85.81;100951.03;5006026;28;20137;-76
2022/02/24 06:52:53;;;;;;;14.65;4.45;;;;;;;5.95;85.91;100947.25;5013721;28;20488;-77
2022/02/24 06:55:24;;;;;;;18.45;4.03;;;;;;;5.96;86.49;100941.06;5011812;28;20030;-77
2022/02/24 06:57:53;;;;;;;15.20;3.90;;;;;;;6.02;85.93;100932.81;5002790;28;20041;-75
2022/02/24 07:00:20;;;;;;;13.35;4.13;;;;;;;5.99;86.77;100927.00;4984200;28;20068;-76
2022/02/24 07:02:46;;;;;;;12.48;3.88;;;;;;;6.01;85.99;100928.56;4973743;28;20049;-77
2022/02/24 07:05:12;;;;;;;15.85;4.38;;;;;;;6.00;86.74;100929.47;5012746;28;20038;-77
2022/02/24 07:07:37;;;;;;;17.90;4.35;;;;;;;5.98;86.83;100909.72;4987746;28;20030;-78
2022/02/24 07:10:10;;;;;;;13.45;3.75;;;;;;;5.99;86.30;100908.75;5010923;28;20470;-76
2022/02/24 07:12:36;;;;;;;13.50;4.15;;;;;;;6.07;86.90;100900.41;4992014;28;20049;-77
2022/02/24 07:15:02;;;;;;;15.35;4.28;;;;;;;6.03;86.54;100897.19;4990979;28;20042;-77
2022/02/24 07:17:28;;;;;;;15.57;4.43;;;;;;;6.08;87.17;100902.06;4996211;28;20125;-79
2022/02/24 07:19:54;;;;;;;13.90;4.28;;;;;;;6.10;87.38;100908.81;4976710;28;20037;-80
2022/02/24 07:22:20;;;;;;;12.38;4.40;;;;;;;6.09;87.54;100907.16;4993283;28;20053;-77
2022/02/24 07:24:45;;;;;;;15.30;4.18;;;;;;;6.09;87.31;100903.72;4999776;28;20034;-76
2022/02/24 07:27:11;;;;;;;16.48;4.07;;;;;;;6.18;87.62;100906.47;4991484;28;20033;-76
2022/02/24 07:29:37;;;;;;;19.20;4.45;;;;;;;6.15;88.24;100905.88;5007903;28;20034;-75
2022/02/24 07:32:03;;;;;;;16.58;4.47;;;;;;;6.15;88.34;100901.47;5006383;28;20072;-78
2022/02/24 07:34:29;;;;;;;13.32;4.60;;;;;;;6.13;88.17;100892.97;4984264;28;20030;-77
2022/02/24 07:36:56;;;;;;;15.45;4.60;;;;;;;6.17;89.05;100901.38;5003068;28;20050;-78
2022/02/24 07:39:22;;;;;;;14.35;5.05;;;;;;;6.15;88.37;100895.44;5008421;28;20360;-76
2022/02/24 07:41:48;;;;;;;17.67;4.43;;;;;;;6.16;89.04;100894.50;4981109;28;20386;-75
2022/02/24 07:44:15;;;;;;;12.68;4.78;;;;;;;6.22;89.65;100907.91;5024020;28;20108;-76
2022/02/24 07:46:41;;;;;;;19.92;5.68;;;;;;;6.18;89.36;100898.66;4975880;28;20064;-77
2022/02/24 07:49:07;;;;;;;16.90;4.70;;;;;;;6.23;88.92;100885.28;4984627;28;20057;-76
2022/02/24 07:51:33;;;;;;;11.65;5.28;;;;;;;6.33;88.80;100882.81;5016392;28;20458;-77
2022/02/24 07:53:59;;;;;;;15.52;4.50;;;;;;;6.30;88.99;100880.47;4989307;28;20100;-77
2022/02/24 07:56:25;;;;;;;19.92;4.95;;;;;;;6.33;89.62;100875.84;5023273;28;20317;-77
2022/02/24 07:58:50;;;;;;;15.63;4.60;;;;;;;6.28;91.06;100872.75;5012275;28;20495;-74
2022/02/24 08:01:17;;;;;;;16.15;4.95;;;;;;;6.33;89.97;100880.22;5002567;28;20067;-76
2022/02/24 08:03:43;;;;;;;14.38;4.70;;;;;;;6.32;91.04;100879.38;4980301;28;20046;-77
2022/02/24 08:06:09;;;;;;;13.35;4.28;;;;;;;6.28;91.22;100861.50;5011889;28;20033;-76
2022/02/24 08:08:34;;;;;;;18.05;5.68;;;;;;;6.31;91.03;100869.06;5002100;28;20056;-78
2022/02/24 08:11:01;;;;;;;13.30;4.88;;;;;;;6.38;90.25;100871.09;5011857;28;20057;-77
2022/02/24 08:13:27;;;;;;;16.25;4.38;;;;;;;6.38;90.00;100859.84;4991662;28;20069;-76
2022/02/24 08:15:53;;;;;;;21.95;5.22;;;;;;;6.46;89.54;100869.69;5008480;28;20045;-77
2022/02/24 08:18:19;;;;;;;14.40;4.80;;;;;;;6.39;89.92;100853.72;4974233;28;20081;-77
2022/02/24 08:20:44;;;;;;;17.95;4.60;;;;;;;6.49;90.40;100864.25;4972159;28;20590;-75
2022/02/24 08:23:10;;;;;;;16.02;4.53;;;;;;;6.46;89.35;100854.91;5010315;28;20126;-77
2022/02/24 08:25:39;;;;;;;15.27;4.50;;;;;;;6.54;88.78;100854.31;4995783;28;20065;-76
2022/02/24 08:28:04;;;;;;;15.70;4.38;;;;;;;6.54;87.90;100842.13;5000284;28;20027;-77
2022/02/24 08:30:30;;;;;;;18.25;4.28;;;;;;;6.54;88.14;100836.09;4995480;28;20040;-75
2022/02/24 08:32:56;;;;;;;17.45;4.05;;;;;;;6.64;88.08;100839.63;4983205;28;20038;-76
2022/02/24 08:35:24;;;;;;;17.05;4.03;;;;;;;6.59;88.06;100837.38;4987740;28;20038;-77
2022/02/24 08:37:50;;;;;;;18.17;4.13;;;;;;;6.67;88.48;100839.41;5004289;28;20035;-80
2022/02/24 08:40:18;;;;;;;20.40;3.97;;;;;;;6.72;88.08;100839.03;5006480;28;20041;-77
2022/02/24 08:42:51;;;;;;;15.65;3.97;;;;;;;6.69;87.36;100824.47;4990998;28;20049;-78
2022/02/24 08:45:18;;;;;;;20.40;3.30;;;;;;;6.69;88.04;100827.06;5003626;28;20171;-75
2022/02/24 08:47:43;;;;;;;17.05;3.30;;;;;;;6.65;88.35;100814.38;5002806;28;20113;-77
2022/02/24 08:50:33;;;;;;;11.57;3.00;;;;;;;6.73;89.54;100820.66;5005445;28;20049;-81
2022/02/24 08:52:59;;;;;;;11.18;3.10;;;;;;;6.67;89.64;100797.69;4989049;28;20492;-78
2022/02/24 08:55:25;;;;;;;15.80;3.20;;;;;;;6.74;89.01;100798.88;4988789;28;20050;-77
2022/02/24 08:57:51;;;;;;;12.40;2.90;;;;;;;6.71;88.09;100787.84;4981968;28;20034;-78
2022/02/24 09:00:18;;;;;;;11.88;2.92;;;;;;;6.76;88.86;100794.38;5025184;28;20065;-78
2022/02/24 09:02:48;;;;;;;15.85;3.05;;;;;;;6.82;88.57;100790.44;4991314;28;20495;-79
2022/02/24 09:05:14;;;;;;;11.43;2.88;;;;;;;6.75;87.74;100784.88;4995060;28;20038;-76
2022/02/24 09:07:43;;;;;;;11.18;2.60;;;;;;;6.76;88.13;100778.72;5010531;28;20514;-78
2022/02/24 09:10:11;;;;;;;11.65;3.00;;;;;;;6.69;87.52;100768.91;5004922;28;20518;-78
2022/02/24 09:12:37;;;;;;;11.98;2.90;;;;;;;6.79;88.28;100762.00;5002725;28;20042;-76
2022/02/24 09:15:03;;;;;;;13.20;2.80;;;;;;;6.83;88.12;100777.25;4993136;28;20065;-77
2022/02/24 09:17:28;;;;;;;19.20;2.67;;;;;;;6.89;86.34;100775.13;4969912;28;20069;-78
2022/02/24 09:19:55;;;;;;;13.73;2.70;;;;;;;6.94;86.60;100770.38;5008257;28;20062;-78
2022/02/24 09:22:21;;;;;;;12.77;3.05;;;;;;;7.02;87.67;100755.75;5010556;28;20095;-76
2022/02/24 09:24:47;;;;;;;12.73;3.22;;;;;;;7.13;87.98;100751.47;4982638;28;20041;-81
2022/02/24 09:27:13;;;;;;;14.88;3.05;;;;;;;7.29;86.81;100757.13;5016222;28;20032;-78
2022/02/24 09:29:39;;;;;;;11.20;2.60;;;;;;;7.34;86.64;100739.28;4996160;28;20042;-79
2022/02/24 09:32:05;;;;;;;13.00;3.22;;;;;;;7.48;87.37;100732.94;4981575;28;20042;-78
2022/02/24 09:34:31;;;;;;;14.95;2.83;;;;;;;7.62;86.62;100733.59;5014923;28;20119;-76
2022/02/24 09:36:56;;;;;;;11.25;3.13;;;;;;;7.63;85.46;100728.25;4998058;28;20471;-77
2022/02/24 09:39:22;;;;;;;14.95;3.22;;;;;;;7.55;84.81;100731.50;4992606;28;20620;-77
2022/02/24 09:41:48;;;;;;;15.27;3.15;;;;;;;7.61;85.73;100714.50;5020301;28;20074;-78
2022/02/24 09:44:13;;;;;;;15.40;3.03;;;;;;;7.69;85.60;100709.44;4992436;28;20053;-78
2022/02/24 09:46:40;;;;;;;9.65;2.60;;;;;;;7.71;84.75;100699.72;5028113;28;20137;-76
2022/02/24 09:49:08;;;;;;;10.05;2.40;;;;;;;7.63;84.92;100707.38;4993803;28;20087;-76
2022/02/24 09:51:34;;;;;;;14.95;2.75;;;;;;;7.51;83.45;100701.34;5010394;28;20103;-77
2022/02/24 09:54:01;;;;;;;11.63;2.78;;;;;;;7.43;84.18;100680.31;5008924;28;20034;-77
2022/02/24 09:56:29;;;;;;;13.98;2.88;;;;;;;7.54;86.05;100669.78;4998702;28;20030;-78
2022/02/24 09:59:00;;;;;;;16.08;2.63;;;;;;;7.62;85.19;100679.59;4998706;28;20068;-78
2022/02/24 10:01:26;;;;;;;15.63;2.70;;;;;;;7.80;84.18;100677.22;5005266;28;20044;-76
2022/02/24 10:04:00;;;;;;;14.30;2.20;;;;;;;8.04;84.17;100676.91;5007257;28;20064;-79
2022/02/24 10:06:38;;;;;;;7.38;2.03;;;;;;;8.14;80.81;100663.91;5013990;28;20045;-78
2022/02/24 10:09:07;;;;;;;11.32;2.58;;;;;;;8.15;82.11;100658.50;5009540;28;20038;-77
2022/02/24 10:11:35;;;;;;;13.73;2.55;;;;;;;8.27;82.63;100658.41;5024478;28;20117;-76
2022/02/24 10:14:09;;;;;;;11.05;2.50;;;;;;;8.38;82.53;100651.31;4984137;28;20045;-77
2022/02/24 10:17:07;;;;;;;16.23;2.90;;;;;;;8.34;83.10;100651.69;5010417;28;20507;-77
2022/02/24 10:19:40;;;;;;;9.25;2.45;;;;;;;8.22;82.09;100643.16;5013097;28;20041;-77
2022/02/24 10:22:12;;;;;;;8.15;2.40;;;;;;;8.08;82.06;100625.22;5009596;28;20054;-77
2022/02/24 10:24:39;;;;;;;12.57;2.78;;;;;;;8.04;82.74;100624.66;4994358;28;20048;-77
2022/02/24 10:27:22;;;;;;;10.73;2.85;;;;;;;8.06;83.40;100612.31;5013228;28;20041;-76
2022/02/24 10:30:17;;;;;;;19.55;3.53;;;;;;;8.11;82.61;100604.88;4989218;28;20470;-77
2022/02/24 10:32:44;;;;;;;13.75;3.53;;;;;;;8.14;82.74;100594.16;5005190;28;20089;-76
2022/02/24 10:35:49;;;;;;;10.32;3.10;;;;;;;8.33;82.11;100596.00;4992701;28;20057;-76
2022/02/24 10:38:14;;;;;;;14.30;3.40;;;;;;;8.17;82.49;100580.00;4973283;28;20037;-77
2022/02/24 10:40:41;;;;;;;17.67;3.83;;;;;;;8.26;82.71;100571.34;5011829;28;20056;-77
2022/02/24 10:43:15;;;;;;;14.02;3.40;;;;;;;8.27;82.32;100566.94;5007589;28;20042;-76
2022/02/24 10:45:43;;;;;;;14.45;3.03;;;;;;;8.37;82.87;100552.13;4989304;28;20137;-76
2022/02/24 10:48:10;;;;;;;12.57;3.17;;;;;;;8.53;81.18;100531.53;4978394;28;20035;-75
2022/02/24 10:50:47;;;;;;;18.58;3.42;;;;;;;8.74;81.86;100556.69;4982400;28;20033;-76
2022/02/24 10:53:14;;;;;;;14.70;3.28;;;;;;;8.79;80.20;100537.97;4986519;28;20514;-77
2022/02/24 10:55:52;;;;;;;13.40;3.03;;;;;;;9.15;79.26;100541.59;5009845;28;20054;-77
2022/02/24 10:58:18;;;;;;;13.20;3.90;;;;;;;9.26;77.70;100533.56;4991616;28;20065;-77
2022/02/24 11:00:43;;;;;;;16.63;3.75;;;;;;;9.34;77.55;100538.09;4991975;28;20045;-76
2022/02/24 11:03:10;;;;;;;15.25;3.40;;;;;;;9.25;76.65;100531.09;5000681;28;20466;-78
2022/02/24 11:05:36;;;;;;;13.20;3.35;;;;;;;9.03;77.88;100525.25;4983415;28;20079;-80
2022/02/24 11:08:03;;;;;;;15.25;3.83;;;;;;;8.98;80.28;100526.63;5003299;28;20031;-77
2022/02/24 11:10:28;;;;;;;12.45;3.20;;;;;;;9.15;78.72;100523.28;4996274;28;20044;-77
2022/02/24 11:12:54;;;;;;;12.88;3.45;;;;;;;9.32;77.82;100506.84;5008672;28;20033;-78
2022/02/24 11:15:20;;;;;;;11.60;3.20;;;;;;;9.32;77.53;100521.69;4988042;28;20065;-76
2022/02/24 11:17:45;;;;;;;17.15;4.25;;;;;;;9.29;77.14;100507.13;4991940;28;20038;-77
2022/02/24 11:20:11;;;;;;;9.77;2.75;;;;;;;9.44;77.09;100497.00;5002318;28;20128;-77
2022/02/24 11:22:37;;;;;;;7.95;2.67;;;;;;;9.59;76.53;100494.72;5012417;28;20060;-77
2022/02/24 11:25:06;;;;;;;10.40;3.25;;;;;;;9.61;75.87;100494.59;5008432;28;20107;-77